• Join FlightAware (Why Join?)
  • Login
  • US Flag 
02:09PM EDT


 

Airport Tracker/Info


-or-


 

Live Flight TrackerFlight Track Log ✈ GPD111 ✈ 31-Mar-2014 ✈ KOXC - KMHT

Flight Track Log - Related Links

Times and Time Zones

All times are in EDT time to prevent confusion due to time zone crossing. See the GPD111 flight status page for this flight to view local times or setup timezone preferences in your user account.

Time Position Orientation Groundspeed Altitude Reporting Facility
EDT Latitude Longitude Course Direction KTS MPH feet Rate Location/Type
07:02AM 41.5189 -73.0539 114° Southeast 163 188 3,700  Level Boston Center
07:03AM 41.5328 -72.9961 72° East 166 191 5,000 1,260 Climbing Boston Center
07:04AM 41.5467 -72.9425 71° East 156 180 6,300 1,320 Climbing Boston Center
07:05AM 41.5597 -72.8806 74° East 159 183 7,800 1,320 Climbing Boston Center
07:06AM 41.5744 -72.8253 70° East 157 181 9,000 1,140 Climbing Boston Center
07:06AM 41.5753 -72.8258 333° Northwest 160 184 9,000  Level Boston Center
07:07AM 41.5914 -72.7575 72° East 193 222 9,000  Level Boston Center
07:07AM 41.5931 -72.7489 75° East 211 243 9,000  Level Boston Center
07:08AM 41.3094 -72.7115 114° Southeast  Level FlightAware Approximate
07:08AM 41.6094 -72.6825 72° East 208 239 9,000  Level Boston Center
07:09AM 41.6100 -72.6744 85° East 211 243 9,000  Level Boston Center
07:09AM 41.6275 -72.6058 71° East 216 249 9,000  Level Boston Center
07:10AM 41.6303 -72.5953 71° East 218 251 9,000  Level Boston Center
07:10AM 41.6558 -72.5325 61° Northeast 219 252 9,000  Level Boston Center
07:10AM 41.6572 -72.5294 59° Northeast 221 254 9,000  Level Boston Center
07:11AM 41.7028 -72.4803 39° Northeast 208 239 9,000  Level Boston Center
07:11AM 41.7025 -72.4803 180° South 213 245 9,000  Level Boston Center
07:12AM 41.7469 -72.4325 39° Northeast 204 235 9,000  Level Boston Center
07:13AM 41.7464 -72.4317 132° Southeast 207 238 9,000  Level Boston Center
07:14AM 41.7900 -72.3831 40° Northeast 207 238 9,000  Level Boston Center
07:14AM 41.7944 -72.3772 44° Northeast 203 234 9,000  Level Boston Center
07:15AM 41.8375 -72.3311 39° Northeast 206 237 9,000  Level Boston Center
07:15AM 41.8383 -72.3294 56° Northeast 206 237 9,000  Level Boston Center
07:15AM 41.8767 -72.2994 30° Northeast 203 234 9,000  Level Boston Center
07:16AM 41.8858 -72.2947 21° North 205 236 9,000  Level Boston Center
07:16AM 41.9303 -72.2781 16° North 201 231 9,000  Level Boston Center
07:17AM 41.9400 -72.2758 10° North 204 235 9,000  Level Boston Center
07:17AM 41.9856 -72.2600 14° North 208 239 9,000 -120 Level Boston Center
07:18AM 41.9953 -72.2558 18° North 205 236 8,900  Descending Boston Center
07:18AM 42.0458 -72.2381 15° North 211 243 9,000  Climbing Boston Center
07:19AM 42.0561 -72.2342 16° North 210 242 8,900  Descending Boston Center
07:20AM 42.1119 -72.2142 15° North 209 241 9,000  Climbing Boston Center
07:20AM 42.1569 -72.1989 14° North 206 237 9,000  Level Boston Center
07:21AM 42.1664 -72.1953 16° North 208 239 9,000  Level Boston Center
07:21AM 42.2128 -72.1781 15° North 205 236 9,000  Level Boston Center
07:22AM 42.2219 -72.1750 14° North 207 238 9,000  Level Boston Center
07:23AM 42.2706 -72.1578 15° North 205 236 9,000  Level Boston Center
07:23AM 42.2772 -72.1550 17° North 207 238 9,000  Level Boston Center
07:24AM 42.3217 -72.1381 16° North 204 235 9,000  Level Boston Center
07:24AM 42.3358 -72.1342 11° North 207 238 9,000  Level Boston Center
07:24AM 42.3681 -72.1108 28° Northeast 204 235 9,000  Level Boston Center
07:25AM 42.3814 -72.0956 40° Northeast 208 239 9,000 -660 Level Boston Center
07:26AM 42.4297 -72.0406 40° Northeast 209 241 8,200 -900 Descending Boston Center
07:27AM 42.4750 -71.9869 41° Northeast 215 247 7,200 -1,020 Descending Boston Center
07:28AM 42.5094 -71.9228 54° Northeast 214 246 6,200 -1,020 Descending Boston Center
07:29AM 42.5403 -71.8533 59° Northeast 214 246 5,200 -600 Descending Boston Center
07:30AM 42.5728 -71.7867 56° Northeast 197 227 5,000 -360 Descending Boston Center
07:31AM 42.6031 -71.7242 57° Northeast 196 226 4,500 -840 Descending Boston Center
07:32AM 42.6292 -71.6575 62° Northeast 199 229 3,400 -780 Descending Boston Center
07:33AM 42.6558 -71.5936 60° Northeast 198 228 3,000 -240 Descending Boston Center
07:34AM 42.6825 -71.5306 60° Northeast 196 226 3,000  Level Boston Center
07:35AM 42.7103 -71.4639 60° Northeast 191 220 3,000 -360 Level Boston Center
07:36AM 42.7350 -71.4006 62° Northeast 190 219 2,300 -540 Descending Boston Center
07:37AM 42.7639 -71.3542 50° Northeast 163 188 2,000 -180 Descending Boston Center
07:38AM 42.8019 -71.3578 356° North 143 165 2,000  Level Boston Center
07:39AM 42.8417 -71.3800 338° Northwest 145 167 2,000 -300 Level Boston Center
07:40AM 42.8681 -71.3956 337° Northwest 106 122 1,500 -540 Descending Boston Center
07:41AM 42.8919 -71.4100 336° Northwest 97 112 1,000 -600 Descending Boston Center
07:42AM 42.9150 -71.4247 335° Northwest 92 106 400 -600 Descending Boston Center
07:44AM 42.9167 -71.4333 338° Northwest  Level FlightAware Approximate